createdAt,value
2022-10-05T00:00:59.684Z,11.87
2022-10-05T00:03:36.944Z,11.66
2022-10-05T00:06:04.101Z,11.71
2022-10-05T00:08:34.104Z,11.60
2022-10-05T00:11:01.642Z,11.55
2022-10-05T00:13:30.963Z,11.34
2022-10-05T00:16:19.319Z,11.02
2022-10-05T00:18:51.611Z,11.08
2022-10-05T00:21:20.388Z,10.72
2022-10-05T00:23:47.315Z,10.77
2022-10-05T00:26:21.848Z,10.76
2022-10-05T00:28:49.613Z,10.74
2022-10-05T00:31:19.654Z,10.75
2022-10-05T00:33:48.031Z,10.70
2022-10-05T00:36:15.601Z,10.45
2022-10-05T00:38:43.282Z,10.64
2022-10-05T00:41:22.942Z,10.67
2022-10-05T00:44:15.417Z,10.69
2022-10-05T00:47:07.351Z,10.67
2022-10-05T00:49:56.689Z,10.60
2022-10-05T00:52:38.612Z,10.54
2022-10-05T00:55:05.412Z,10.56
2022-10-05T00:58:04.516Z,10.77
2022-10-05T01:00:39.814Z,10.75
2022-10-05T01:03:37.019Z,10.63
2022-10-05T01:06:27.320Z,10.54
2022-10-05T01:09:02.735Z,10.41
2022-10-05T01:11:48.117Z,10.35
2022-10-05T01:14:40.672Z,10.21
2022-10-05T01:17:20.433Z,10.12
2022-10-05T01:19:56.546Z,9.99
2022-10-05T01:22:45.219Z,10.20
2022-10-05T01:25:21.419Z,10.20
2022-10-05T01:27:48.296Z,10.24
2022-10-05T01:30:18.708Z,10.24
2022-10-05T01:33:28.123Z,10.28
2022-10-05T01:35:57.724Z,10.21
2022-10-05T01:38:30.148Z,10.27
2022-10-05T01:41:25.304Z,10.20
2022-10-05T01:43:56.556Z,10.11
2022-10-05T01:46:35.989Z,9.99
2022-10-05T01:49:20.977Z,9.91
2022-10-05T01:51:50.836Z,9.73
2022-10-05T01:54:40.026Z,9.64
2022-10-05T01:57:19.364Z,9.50
2022-10-05T02:00:09.261Z,9.39
2022-10-05T02:03:01.417Z,9.42
2022-10-05T02:05:50.601Z,9.35
2022-10-05T02:08:23.494Z,9.51
2022-10-05T02:11:07.633Z,9.55
2022-10-05T02:14:00.125Z,9.49
2022-10-05T02:16:45.657Z,9.59
2022-10-05T02:19:27.599Z,9.46
2022-10-05T02:22:08.545Z,9.44
2022-10-05T02:24:44.517Z,9.31
2022-10-05T02:27:18.274Z,9.36
2022-10-05T02:29:48.874Z,9.25
2022-10-05T02:32:22.832Z,9.12
2022-10-05T02:34:50.279Z,8.94
2022-10-05T02:37:42.949Z,8.94
2022-10-05T02:40:34.717Z,8.78
2022-10-05T02:43:13.780Z,8.88
2022-10-05T02:46:03.958Z,8.90
2022-10-05T02:48:57.319Z,8.96
2022-10-05T02:51:33.247Z,8.97
2022-10-05T02:54:33.115Z,8.90
2022-10-05T02:57:16.381Z,8.83
2022-10-05T03:00:14.993Z,8.76
2022-10-05T03:02:51.269Z,8.81
2022-10-05T03:05:33.955Z,8.72
2022-10-05T03:08:04.064Z,8.79
2022-10-05T03:10:47.876Z,8.82
2022-10-05T03:13:30.397Z,8.81
2022-10-05T03:16:09.852Z,8.91
2022-10-05T03:18:44.839Z,9.07
2022-10-05T03:21:12.160Z,9.08
2022-10-05T03:24:06.464Z,9.10
2022-10-05T03:26:47.882Z,9.14
2022-10-05T03:29:33.263Z,9.21
2022-10-05T03:32:34.634Z,9.28
2022-10-05T03:35:28.875Z,9.60
2022-10-05T03:38:02.156Z,9.82
2022-10-05T03:40:38.717Z,9.96
2022-10-05T03:43:38.623Z,10.08
2022-10-05T03:46:32.028Z,9.83
2022-10-05T03:49:05.331Z,9.65
2022-10-05T03:51:37.485Z,9.33
2022-10-05T03:54:15.978Z,8.96
2022-10-05T03:56:51.737Z,8.62
2022-10-05T03:59:30.142Z,8.47
2022-10-05T04:02:15.705Z,8.41
2022-10-05T04:04:48.918Z,8.64
2022-10-05T04:07:33.443Z,8.83
2022-10-05T04:10:03.342Z,8.90
2022-10-05T04:12:43.785Z,9.01
2022-10-05T04:15:45.356Z,8.89
2022-10-05T04:18:27.112Z,8.77
2022-10-05T04:21:23.955Z,8.85
2022-10-05T04:24:13.389Z,8.85
2022-10-05T04:26:55.830Z,8.96
2022-10-05T04:29:38.171Z,8.77
2022-10-05T04:32:50.160Z,8.72
2022-10-05T04:35:31.495Z,8.70
2022-10-05T04:38:15.972Z,8.64
2022-10-05T04:41:13.337Z,8.81
2022-10-05T04:43:46.696Z,8.91
2022-10-05T04:46:53.435Z,9.01
2022-10-05T04:49:44.953Z,9.23
2022-10-05T04:52:31.470Z,9.41
2022-10-05T04:55:36.025Z,9.22
2022-10-05T04:58:42.086Z,9.20
2022-10-05T05:01:45.686Z,9.36
2022-10-05T05:04:43.160Z,9.56
2022-10-05T05:07:19.926Z,9.73
2022-10-05T05:10:24.592Z,9.82
2022-10-05T05:13:22.601Z,10.02
2022-10-05T05:16:04.709Z,10.18
2022-10-05T05:19:04.647Z,10.10
2022-10-05T05:22:20.906Z,9.81
2022-10-05T05:25:21.078Z,9.97
2022-10-05T05:27:57.065Z,9.96
2022-10-05T05:30:43.350Z,9.75
2022-10-05T05:33:17.510Z,10.02
2022-10-05T05:35:55.843Z,10.16
2022-10-05T05:38:41.483Z,10.52
2022-10-05T05:41:09.338Z,10.37
2022-10-05T05:43:51.379Z,10.32
2022-10-05T05:47:04.786Z,10.41
2022-10-05T05:49:49.757Z,10.88
2022-10-05T05:52:24.368Z,11.23
2022-10-05T05:55:20.956Z,11.61
2022-10-05T05:58:15.490Z,11.75
2022-10-05T06:00:53.853Z,11.96
2022-10-05T06:03:51.812Z,12.24
2022-10-05T06:06:25.865Z,12.41
2022-10-05T06:08:57.129Z,12.49
2022-10-05T06:11:53.601Z,12.77
2022-10-05T06:14:42.570Z,12.90
2022-10-05T06:17:26.942Z,12.96
2022-10-05T06:20:02.503Z,13.05
2022-10-05T06:22:44.238Z,13.32
2022-10-05T06:25:15.094Z,13.52
2022-10-05T06:27:56.989Z,13.68
2022-10-05T06:30:26.385Z,13.78
2022-10-05T06:33:15.524Z,13.65
2022-10-05T06:36:07.643Z,13.91
2022-10-05T06:38:47.042Z,14.10
2022-10-05T06:41:48.052Z,14.18
2022-10-05T06:44:33.558Z,14.49
2022-10-05T06:47:47.515Z,14.59
2022-10-05T06:50:56.977Z,14.74
2022-10-05T06:54:04.216Z,14.89
2022-10-05T06:57:03.029Z,15.03
2022-10-05T07:00:01.969Z,15.21
2022-10-05T07:02:40.931Z,15.19
2022-10-05T07:05:29.673Z,15.09
2022-10-05T07:07:58.532Z,15.13
2022-10-05T07:10:57.318Z,15.33
2022-10-05T07:13:43.828Z,15.30
2022-10-05T07:16:36.618Z,15.33
2022-10-05T07:19:20.174Z,15.19
2022-10-05T07:22:37.351Z,15.54
2022-10-05T07:25:20.469Z,15.67
2022-10-05T07:27:55.801Z,15.89
2022-10-05T07:30:23.609Z,16.00
2022-10-05T07:33:09.965Z,16.17
2022-10-05T07:36:19.332Z,16.39
2022-10-05T07:38:59.380Z,16.50
2022-10-05T07:41:46.106Z,16.41
2022-10-05T07:44:17.058Z,16.47
2022-10-05T07:46:58.044Z,16.44
2022-10-05T07:49:47.758Z,16.50
2022-10-05T07:52:26.585Z,16.59
2022-10-05T07:55:20.771Z,16.58
2022-10-05T07:58:24.131Z,16.58
2022-10-05T08:01:13.724Z,16.63
2022-10-05T08:03:58.590Z,16.90
2022-10-05T08:06:57.337Z,16.84
2022-10-05T08:09:46.448Z,16.79
2022-10-05T08:12:24.171Z,16.84
2022-10-05T08:15:10.055Z,16.91
2022-10-05T08:17:53.217Z,16.96
2022-10-05T08:20:23.020Z,17.15
2022-10-05T08:22:58.633Z,16.93
2022-10-05T08:25:33.949Z,16.92
2022-10-05T08:28:13.052Z,17.05
2022-10-05T08:31:31.979Z,17.30
2022-10-05T08:34:21.131Z,17.62
2022-10-05T08:37:00.265Z,17.57
2022-10-05T08:39:34.324Z,17.16
2022-10-05T08:42:58.267Z,17.28
2022-10-05T08:45:53.281Z,17.77
2022-10-05T08:48:50.241Z,18.07
2022-10-05T08:51:49.593Z,18.26
2022-10-05T08:54:27.278Z,18.18
2022-10-05T08:57:15.824Z,18.40
2022-10-05T09:00:04.393Z,18.20
2022-10-05T09:02:35.101Z,17.95
2022-10-05T09:05:33.521Z,18.05
2022-10-05T09:08:13.025Z,18.04
2022-10-05T09:11:02.581Z,18.41
2022-10-05T09:13:39.507Z,18.79
2022-10-05T09:16:15.275Z,19.12
2022-10-05T09:19:23.701Z,19.29
2022-10-05T09:21:56.741Z,19.48
2022-10-05T09:25:03.530Z,19.53
2022-10-05T09:27:37.612Z,19.41
2022-10-05T09:30:19.089Z,19.14
2022-10-05T09:33:34.767Z,19.12
2022-10-05T09:36:30.549Z,18.55
2022-10-05T09:39:13.860Z,17.85
2022-10-05T09:41:43.399Z,17.99
2022-10-05T09:44:31.711Z,18.05
2022-10-05T09:47:30.301Z,17.99
2022-10-05T09:50:28.095Z,18.09
2022-10-05T09:53:09.917Z,18.35
2022-10-05T09:56:19.688Z,18.71
2022-10-05T09:59:08.684Z,18.72
2022-10-05T10:01:40.585Z,18.81
2022-10-05T10:04:48.591Z,18.87
2022-10-05T10:07:52.018Z,19.07
2022-10-05T10:10:54.302Z,19.49
2022-10-05T10:13:58.178Z,19.88
2022-10-05T10:16:53.712Z,19.92
2022-10-05T10:19:47.561Z,20.09
2022-10-05T10:22:33.004Z,20.24
2022-10-05T10:25:35.338Z,20.50
2022-10-05T10:28:41.138Z,20.37
2022-10-05T10:31:26.140Z,20.12
2022-10-05T10:34:08.154Z,19.42
2022-10-05T10:36:54.115Z,18.60
2022-10-05T10:39:58.408Z,18.34
2022-10-05T10:42:30.904Z,18.71
2022-10-05T10:45:28.748Z,18.89
2022-10-05T10:48:18.611Z,18.43
2022-10-05T10:51:29.816Z,18.44
2022-10-05T10:54:21.020Z,18.28
2022-10-05T10:56:55.061Z,18.27
2022-10-05T10:59:59.215Z,18.44
2022-10-05T11:02:46.825Z,18.06
2022-10-05T11:05:23.250Z,18.29
2022-10-05T11:08:02.119Z,18.63
2022-10-05T11:10:46.784Z,19.10
2022-10-05T11:13:37.328Z,19.30
2022-10-05T11:16:28.762Z,19.45
2022-10-05T11:18:58.699Z,19.03
2022-10-05T11:21:44.275Z,18.74
2022-10-05T11:24:25.932Z,19.23
2022-10-05T11:26:55.538Z,19.09
2022-10-05T11:30:02.077Z,19.28
2022-10-05T11:32:56.242Z,19.63
2022-10-05T11:35:38.304Z,19.76
2022-10-05T11:38:17.026Z,19.71
2022-10-05T11:41:23.164Z,19.60
2022-10-05T11:44:07.955Z,19.74
2022-10-05T11:47:25.678Z,19.98
2022-10-05T11:50:06.634Z,20.05
2022-10-05T11:52:52.268Z,19.92
2022-10-05T11:55:33.852Z,20.31
2022-10-05T11:58:23.637Z,20.46
2022-10-05T12:01:04.244Z,20.49
2022-10-05T12:03:59.395Z,20.80
2022-10-05T12:06:43.786Z,20.84
2022-10-05T12:09:14.488Z,20.86
2022-10-05T12:12:06.289Z,20.87
2022-10-05T12:14:42.307Z,20.39
2022-10-05T12:17:24.387Z,20.29
2022-10-05T12:19:57.986Z,20.45
2022-10-05T12:22:34.815Z,20.42
2022-10-05T12:25:28.735Z,20.39
2022-10-05T12:28:04.857Z,20.28
2022-10-05T12:31:06.319Z,20.12
2022-10-05T12:33:45.522Z,20.34
2022-10-05T12:36:17.844Z,20.32
2022-10-05T12:39:05.037Z,20.24
2022-10-05T12:41:57.868Z,20.15
2022-10-05T12:44:46.302Z,20.18
2022-10-05T12:47:23.821Z,20.15
2022-10-05T12:50:16.957Z,20.10
2022-10-05T12:52:53.010Z,19.97
2022-10-05T12:55:42.533Z,19.86
2022-10-05T12:58:31.283Z,20.06
2022-10-05T13:01:24.716Z,20.22
2022-10-05T13:04:01.693Z,20.03
2022-10-05T13:06:48.492Z,19.91
2022-10-05T13:09:34.003Z,19.87
2022-10-05T13:12:18.005Z,19.78
2022-10-05T13:14:47.854Z,19.68
2022-10-05T13:17:29.793Z,19.82
2022-10-05T13:20:03.778Z,19.84
2022-10-05T13:22:34.871Z,19.55
2022-10-05T13:25:25.877Z,19.72
2022-10-05T13:27:55.562Z,19.84
2022-10-05T13:30:22.755Z,19.72
2022-10-05T13:33:08.159Z,19.66
2022-10-05T13:36:00.921Z,19.38
2022-10-05T13:38:51.065Z,19.39
2022-10-05T13:41:36.660Z,19.42
2022-10-05T13:44:18.288Z,19.30
2022-10-05T13:47:06.702Z,19.20
2022-10-05T13:49:51.654Z,19.59
2022-10-05T13:52:37.740Z,19.74
2022-10-05T13:55:38.452Z,19.83
2022-10-05T14:01:24.366Z,19.40
2022-10-05T14:04:20.607Z,19.36
2022-10-05T14:06:49.452Z,19.33
2022-10-05T14:09:25.398Z,19.32
2022-10-05T14:12:01.996Z,19.40
2022-10-05T14:14:31.912Z,19.31
2022-10-05T14:17:05.809Z,19.41
2022-10-05T14:19:42.131Z,19.26
2022-10-05T14:22:23.659Z,19.26
2022-10-05T14:25:02.917Z,19.26
2022-10-05T14:27:51.807Z,19.34
2022-10-05T14:30:25.717Z,19.40
2022-10-05T14:33:04.485Z,19.24
2022-10-05T14:35:49.050Z,19.28
2022-10-05T14:38:18.169Z,19.32
2022-10-05T14:40:45.134Z,19.29
2022-10-05T14:43:16.749Z,19.23
2022-10-05T14:45:58.782Z,19.10
2022-10-05T14:48:28.208Z,19.06
2022-10-05T14:51:00.462Z,19.00
2022-10-05T14:53:40.939Z,18.97
2022-10-05T14:56:26.664Z,18.86
2022-10-05T14:59:23.255Z,18.74
2022-10-05T15:02:01.066Z,18.65
2022-10-05T15:04:29.437Z,18.58
2022-10-05T15:07:32.158Z,18.55
2022-10-05T15:10:19.117Z,18.60
2022-10-05T15:12:48.478Z,18.58
2022-10-05T15:15:32.841Z,18.60
2022-10-05T15:18:05.794Z,18.58
2022-10-05T15:20:53.655Z,18.53
2022-10-05T15:23:25.708Z,18.51
2022-10-05T15:26:46.659Z,18.41
2022-10-05T15:29:26.161Z,18.23
2022-10-05T15:31:55.766Z,18.07
2022-10-05T15:34:36.236Z,18.04
2022-10-05T15:37:19.812Z,17.92
2022-10-05T15:39:46.650Z,17.82
2022-10-05T15:42:29.529Z,17.75
2022-10-05T15:45:14.140Z,17.44
2022-10-05T15:47:53.185Z,17.40
2022-10-05T15:50:26.641Z,17.37
2022-10-05T15:53:06.614Z,17.24
2022-10-05T15:55:51.263Z,17.10
2022-10-05T15:58:45.568Z,17.09
2022-10-05T16:01:21.274Z,16.93
2022-10-05T16:03:52.258Z,16.91
2022-10-05T16:07:03.770Z,16.96
2022-10-05T16:15:35.684Z,17.09
2022-10-05T16:18:36.020Z,17.19
2022-10-05T16:21:15.204Z,16.90
2022-10-05T16:24:06.420Z,16.68
2022-10-05T16:26:56.942Z,16.45
2022-10-05T16:29:33.022Z,16.38
2022-10-05T16:32:17.192Z,16.26
2022-10-05T16:35:10.837Z,16.33
2022-10-05T16:38:06.708Z,16.28
2022-10-05T16:40:59.638Z,16.14
2022-10-05T16:43:44.955Z,16.19
2022-10-05T16:46:28.056Z,16.23
2022-10-05T16:49:09.471Z,15.92
2022-10-05T16:51:44.629Z,15.92
2022-10-05T16:54:18.281Z,16.05
2022-10-05T16:56:52.147Z,15.98
2022-10-05T16:59:34.077Z,16.20
2022-10-05T17:02:33.722Z,16.49
2022-10-05T17:05:25.765Z,16.55
2022-10-05T17:07:55.351Z,16.37
2022-10-05T17:10:37.254Z,16.22
2022-10-05T17:13:29.627Z,16.37
2022-10-05T17:16:22.064Z,16.41
2022-10-05T17:19:19.942Z,16.40
2022-10-05T17:22:06.071Z,16.68
2022-10-05T17:24:54.316Z,16.78
2022-10-05T17:27:50.938Z,16.69
2022-10-05T17:30:21.017Z,16.58
2022-10-05T17:33:14.271Z,16.54
2022-10-05T17:35:51.798Z,16.59
2022-10-05T17:38:49.022Z,16.40
2022-10-05T17:41:19.614Z,16.35
2022-10-05T17:44:17.675Z,16.44
2022-10-05T17:46:50.172Z,16.43
2022-10-05T17:49:46.829Z,16.43
2022-10-05T17:52:44.407Z,16.33
2022-10-05T17:55:28.146Z,16.00
2022-10-05T17:57:58.747Z,15.87
2022-10-05T18:00:32.883Z,15.88
2022-10-05T18:03:00.250Z,16.06
2022-10-05T18:05:29.318Z,15.86
2022-10-05T18:08:11.516Z,15.92
2022-10-05T18:10:59.428Z,15.90
2022-10-05T18:13:47.908Z,15.82
2022-10-05T18:16:53.177Z,15.83
2022-10-05T18:19:22.349Z,15.88
2022-10-05T18:22:15.054Z,15.75
2022-10-05T18:25:07.270Z,15.75
2022-10-05T18:27:50.946Z,15.72
2022-10-05T18:30:26.928Z,15.75
2022-10-05T18:33:03.525Z,15.70
2022-10-05T18:36:07.737Z,15.55
2022-10-05T18:38:44.576Z,15.41
2022-10-05T18:41:23.374Z,15.38
2022-10-05T18:44:06.154Z,15.39
2022-10-05T18:46:50.548Z,15.35
2022-10-05T18:49:48.657Z,15.22
2022-10-05T18:52:40.198Z,15.29
2022-10-05T18:55:23.628Z,14.96
2022-10-05T18:58:03.375Z,15.09
2022-10-05T19:01:12.594Z,14.62
2022-10-05T19:03:52.371Z,14.42
2022-10-05T19:06:32.910Z,14.51
2022-10-05T19:09:51.029Z,14.60
2022-10-05T19:12:29.495Z,14.65
2022-10-05T19:15:18.322Z,14.63
2022-10-05T19:18:07.944Z,14.71
2022-10-05T19:20:41.609Z,14.72
2022-10-05T19:23:39.140Z,14.74
2022-10-05T19:26:37.852Z,14.51
2022-10-05T19:29:33.494Z,14.71
2022-10-05T19:32:28.843Z,14.56
2022-10-05T19:35:17.811Z,14.53
2022-10-05T19:38:15.842Z,14.49
2022-10-05T19:41:07.387Z,14.31
2022-10-05T19:43:55.451Z,14.33
2022-10-05T19:47:00.273Z,14.22
2022-10-05T19:49:43.169Z,14.15
2022-10-05T19:52:21.287Z,13.98
2022-10-05T19:55:01.571Z,14.01
2022-10-05T19:57:28.813Z,13.92
2022-10-05T19:59:58.328Z,13.94
2022-10-05T20:02:27.117Z,13.65
2022-10-05T20:05:07.093Z,13.30
2022-10-05T20:07:35.113Z,13.31
2022-10-05T20:10:30.645Z,13.60
2022-10-05T20:13:00.549Z,13.43
2022-10-05T20:15:48.506Z,13.77
2022-10-05T20:19:01.965Z,13.83
2022-10-05T20:21:44.124Z,13.94
2022-10-05T20:24:23.676Z,13.90
2022-10-05T20:27:06.279Z,13.92
2022-10-05T20:29:43.532Z,13.96
2022-10-05T20:32:19.378Z,13.83
2022-10-05T20:34:48.475Z,13.52
2022-10-05T20:37:17.724Z,13.48
2022-10-05T20:39:44.725Z,13.47
2022-10-05T20:42:11.847Z,13.45
2022-10-05T20:44:39.665Z,13.45
2022-10-05T20:47:09.759Z,13.34
2022-10-05T20:49:39.129Z,13.36
2022-10-05T20:52:13.254Z,13.45
2022-10-05T20:54:40.237Z,13.41
2022-10-05T20:57:09.220Z,13.28
2022-10-05T20:59:36.394Z,13.35
2022-10-05T21:02:06.273Z,13.22
2022-10-05T21:04:41.978Z,13.17
2022-10-05T21:07:09.527Z,13.17
2022-10-05T21:09:38.674Z,13.06
2022-10-05T21:12:08.234Z,13.06
2022-10-05T21:14:36.537Z,13.12
2022-10-05T21:17:05.011Z,13.16
2022-10-05T21:19:38.186Z,13.17
2022-10-05T21:22:11.387Z,12.70
2022-10-05T21:24:41.226Z,12.53
2022-10-05T21:27:09.860Z,12.59
2022-10-05T21:29:37.188Z,12.37
2022-10-05T21:32:08.570Z,12.34
2022-10-05T21:34:35.792Z,12.25
2022-10-05T21:37:04.398Z,12.24
2022-10-05T21:39:31.453Z,12.25
2022-10-05T21:41:58.322Z,12.13
2022-10-05T21:44:25.179Z,11.98
2022-10-05T21:46:56.172Z,11.91
2022-10-05T21:49:25.751Z,11.70
2022-10-05T21:51:52.817Z,11.63
2022-10-05T21:54:22.467Z,11.65
2022-10-05T21:56:55.777Z,11.66
2022-10-05T21:59:27.782Z,11.32
2022-10-05T22:01:54.901Z,11.54
2022-10-05T22:04:22.629Z,11.59
2022-10-05T22:06:49.518Z,11.59
2022-10-05T22:09:16.403Z,11.84
2022-10-05T22:11:47.209Z,11.91
2022-10-05T22:14:17.263Z,11.88
2022-10-05T22:16:44.813Z,11.90
2022-10-05T22:19:16.642Z,11.74
2022-10-05T22:21:43.581Z,11.83
2022-10-05T22:24:11.682Z,11.84
2022-10-05T22:26:41.753Z,12.01
2022-10-05T22:29:09.670Z,12.20
2022-10-05T22:31:37.135Z,12.25
2022-10-05T22:34:04.091Z,12.17
2022-10-05T22:36:31.413Z,12.31
2022-10-05T22:38:58.461Z,12.25
2022-10-05T22:41:25.417Z,12.13
2022-10-05T22:43:52.772Z,12.26
2022-10-05T22:46:20.306Z,12.27
2022-10-05T22:48:48.066Z,12.18
2022-10-05T22:51:14.923Z,12.27
2022-10-05T22:53:41.855Z,12.32
2022-10-05T22:56:11.562Z,12.18
2022-10-05T22:58:38.623Z,12.07
2022-10-05T23:01:08.586Z,11.98
2022-10-05T23:03:35.655Z,11.91
2022-10-05T23:06:11.712Z,11.74
2022-10-05T23:08:39.852Z,11.52
2022-10-05T23:11:12.220Z,11.34
2022-10-05T23:13:39.475Z,11.31
2022-10-05T23:16:17.832Z,11.24
2022-10-05T23:18:47.527Z,10.95
2022-10-05T23:21:14.633Z,10.86
2022-10-05T23:23:47.440Z,10.51
2022-10-05T23:26:16.107Z,10.75
2022-10-05T23:28:46.660Z,10.84
2022-10-05T23:31:16.197Z,10.78
2022-10-05T23:33:43.883Z,10.68
2022-10-05T23:36:20.338Z,10.81
2022-10-05T23:38:47.581Z,10.93
2022-10-05T23:41:16.056Z,11.07
2022-10-05T23:43:43.592Z,11.18
2022-10-05T23:46:10.691Z,10.96
2022-10-05T23:48:40.483Z,10.71
2022-10-05T23:51:10.015Z,10.55
2022-10-05T23:53:37.438Z,10.46
2022-10-05T23:56:04.801Z,10.57
2022-10-05T23:58:32.004Z,10.61
